createdAt,value
2017-11-26T00:01:32.901Z,77.80
2017-11-26T00:03:59.492Z,77.10
2017-11-26T00:06:25.710Z,77.10
2017-11-26T00:08:51.926Z,77.70
2017-11-26T00:11:18.122Z,78.20
2017-11-26T00:13:44.338Z,78.10
2017-11-26T00:16:10.547Z,77.30
2017-11-26T00:18:36.815Z,77.90
2017-11-26T00:21:03.066Z,77.80
2017-11-26T00:23:29.309Z,78.30
2017-11-26T00:25:55.587Z,78.20
2017-11-26T00:28:22.206Z,76.60
2017-11-26T00:30:48.434Z,76.60
2017-11-26T00:33:14.651Z,76.70
2017-11-26T00:35:40.917Z,76.20
2017-11-26T00:38:07.513Z,77.30
2017-11-26T00:40:33.753Z,77.30
2017-11-26T00:42:59.965Z,77.90
2017-11-26T00:45:26.198Z,77.90
2017-11-26T00:47:52.425Z,78.10
2017-11-26T00:50:18.630Z,77.90
2017-11-26T00:52:44.887Z,78.20
2017-11-26T00:55:11.114Z,77.50
2017-11-26T00:57:37.343Z,78.70
2017-11-26T01:00:03.590Z,78.50
2017-11-26T01:02:29.832Z,77.90
2017-11-26T01:04:56.410Z,76.90
2017-11-26T01:07:22.615Z,76.90
2017-11-26T01:09:48.871Z,77.50
2017-11-26T01:12:15.074Z,76.90
2017-11-26T01:14:41.345Z,77.90
2017-11-26T01:17:07.564Z,77.40
2017-11-26T01:19:33.771Z,77.70
2017-11-26T01:21:59.994Z,78.40
2017-11-26T01:24:26.209Z,78.60
2017-11-26T01:26:52.445Z,78.70
2017-11-26T01:29:18.642Z,77.80
2017-11-26T01:31:45.230Z,78.50
2017-11-26T01:34:11.468Z,78.50
2017-11-26T01:36:37.714Z,77.70
2017-11-26T01:39:03.960Z,77.70
2017-11-26T01:41:30.602Z,78.20
2017-11-26T01:43:57.222Z,78.70
2017-11-26T01:46:23.474Z,78.70
2017-11-26T01:48:49.690Z,78.90
2017-11-26T01:51:15.991Z,79.20
2017-11-26T01:53:42.237Z,79.30
2017-11-26T01:56:08.500Z,78.80
2017-11-26T01:58:34.785Z,79.90
2017-11-26T02:01:01.045Z,80.00
2017-11-26T02:03:27.335Z,79.50
2017-11-26T02:05:53.609Z,77.80
2017-11-26T02:08:19.877Z,78.10
2017-11-26T02:10:46.117Z,78.30
2017-11-26T02:13:12.362Z,76.70
2017-11-26T02:15:38.617Z,77.00
2017-11-26T02:18:05.223Z,76.30
2017-11-26T02:20:31.491Z,76.20
2017-11-26T02:22:57.752Z,77.10
2017-11-26T02:25:24.012Z,75.90
2017-11-26T02:27:50.262Z,75.70
2017-11-26T02:30:16.863Z,76.00
2017-11-26T02:32:55.372Z,76.00
2017-11-26T02:35:33.707Z,75.60
2017-11-26T02:37:59.982Z,75.70
2017-11-26T02:40:26.234Z,76.50
2017-11-26T02:42:52.502Z,76.40
2017-11-26T02:45:18.742Z,76.30
2017-11-26T02:47:45.026Z,75.90
2017-11-26T02:50:11.285Z,76.90
2017-11-26T02:52:37.565Z,76.50
2017-11-26T02:55:03.835Z,77.10
2017-11-26T02:57:30.890Z,76.30
2017-11-26T02:59:57.173Z,76.90
2017-11-26T03:02:23.400Z,77.10
2017-11-26T03:04:49.662Z,76.30
2017-11-26T03:07:15.884Z,75.90
2017-11-26T03:09:42.112Z,77.70
2017-11-26T03:12:08.350Z,76.90
2017-11-26T03:14:34.572Z,77.50
2017-11-26T03:17:00.798Z,77.00
2017-11-26T03:19:27.441Z,75.20
2017-11-26T03:21:53.653Z,74.30
2017-11-26T03:24:19.942Z,75.90
2017-11-26T03:26:46.258Z,77.00
2017-11-26T03:29:12.547Z,76.30
2017-11-26T03:31:38.790Z,73.90
2017-11-26T03:34:05.025Z,73.20
2017-11-26T03:36:31.241Z,75.00
2017-11-26T03:38:57.481Z,73.60
2017-11-26T03:41:23.713Z,72.80
2017-11-26T03:43:49.941Z,73.70
2017-11-26T03:46:16.567Z,76.20
2017-11-26T03:48:42.856Z,76.20
2017-11-26T03:51:09.083Z,75.50
2017-11-26T03:53:35.322Z,74.40
2017-11-26T03:56:01.563Z,74.00
2017-11-26T03:58:27.812Z,73.70
2017-11-26T04:00:54.075Z,75.00
2017-11-26T04:03:20.291Z,76.00
2017-11-26T04:05:46.512Z,73.50
2017-11-26T04:08:12.780Z,73.60
2017-11-26T04:10:39.019Z,74.00
2017-11-26T04:13:05.228Z,74.60
2017-11-26T04:15:31.483Z,73.60
2017-11-26T04:17:57.721Z,74.40
2017-11-26T04:20:24.000Z,73.10
2017-11-26T04:22:50.635Z,71.30
2017-11-26T04:25:16.889Z,71.30
2017-11-26T04:27:43.132Z,72.10
2017-11-26T04:30:09.369Z,72.00
2017-11-26T04:32:35.595Z,73.60
2017-11-26T04:35:01.865Z,73.10
2017-11-26T04:37:28.072Z,73.80
2017-11-26T04:39:54.287Z,72.00
2017-11-26T04:42:20.522Z,72.60
2017-11-26T04:44:46.781Z,72.00
2017-11-26T04:47:13.283Z,71.40
2017-11-26T04:49:39.507Z,70.70
2017-11-26T04:52:05.716Z,70.80
2017-11-26T04:54:31.975Z,70.70
2017-11-26T04:56:58.205Z,69.40
2017-11-26T04:59:24.533Z,71.10
2017-11-26T05:01:51.271Z,70.70
2017-11-26T05:04:17.522Z,70.70
2017-11-26T05:06:44.106Z,70.30
2017-11-26T05:09:10.388Z,70.30
2017-11-26T05:11:36.992Z,71.60
2017-11-26T05:14:03.209Z,71.60
2017-11-26T05:16:29.432Z,71.40
2017-11-26T05:18:55.664Z,71.60
2017-11-26T05:21:21.899Z,72.70
2017-11-26T05:23:48.171Z,72.10
2017-11-26T05:26:14.784Z,71.10
2017-11-26T05:28:41.068Z,71.10
2017-11-26T05:31:07.306Z,72.00
2017-11-26T05:33:33.541Z,71.80
2017-11-26T05:35:59.799Z,71.70
2017-11-26T05:38:26.639Z,71.00
2017-11-26T05:40:52.939Z,71.40
2017-11-26T05:43:19.133Z,70.80
2017-11-26T05:45:45.380Z,71.40
2017-11-26T05:48:11.615Z,70.70
2017-11-26T05:50:37.854Z,71.10
2017-11-26T05:53:04.099Z,72.10
2017-11-26T05:55:30.353Z,72.40
2017-11-26T05:57:56.944Z,73.00
2017-11-26T06:00:23.223Z,73.00
2017-11-26T06:02:49.789Z,73.00
2017-11-26T06:05:16.018Z,73.00
2017-11-26T06:07:42.268Z,73.70
2017-11-26T06:10:08.528Z,73.60
2017-11-26T06:12:34.744Z,73.60
2017-11-26T06:15:00.966Z,73.20
2017-11-26T06:17:27.244Z,74.00
2017-11-26T06:19:53.504Z,73.40
2017-11-26T06:22:19.801Z,73.60
2017-11-26T06:24:46.066Z,73.80
2017-11-26T06:27:12.326Z,73.60
2017-11-26T06:29:38.593Z,73.80
2017-11-26T06:32:04.825Z,74.80
2017-11-26T06:34:31.033Z,73.80
2017-11-26T06:36:57.658Z,73.80
2017-11-26T06:39:24.236Z,74.00
2017-11-26T06:41:50.473Z,74.00
2017-11-26T06:44:16.719Z,73.50
2017-11-26T06:46:43.000Z,72.90
2017-11-26T06:49:09.592Z,73.70
2017-11-26T06:51:35.857Z,73.70
2017-11-26T06:54:02.469Z,73.80
2017-11-26T06:56:28.725Z,73.80
2017-11-26T06:58:55.383Z,74.60
2017-11-26T07:01:21.653Z,74.60
2017-11-26T07:03:47.894Z,75.30
2017-11-26T07:06:14.121Z,75.30
2017-11-26T07:08:40.358Z,75.40
2017-11-26T07:11:06.634Z,74.90
2017-11-26T07:13:32.889Z,74.90
2017-11-26T07:15:59.140Z,75.20
2017-11-26T07:18:25.353Z,74.90
2017-11-26T07:20:51.592Z,75.40
2017-11-26T07:23:17.807Z,75.10
2017-11-26T07:25:44.061Z,75.90
2017-11-26T07:28:10.647Z,76.50
2017-11-26T07:30:36.945Z,76.50
2017-11-26T07:33:03.543Z,74.90
2017-11-26T07:35:29.799Z,74.80
2017-11-26T07:37:56.397Z,75.40
2017-11-26T07:40:22.695Z,75.40
2017-11-26T07:42:48.917Z,75.40
2017-11-26T07:45:15.156Z,75.50
2017-11-26T07:47:41.380Z,75.70
2017-11-26T07:50:07.590Z,76.10
2017-11-26T07:52:33.855Z,75.90
2017-11-26T07:55:00.139Z,76.00
2017-11-26T07:57:26.393Z,76.60
2017-11-26T07:59:52.688Z,77.10
2017-11-26T08:02:19.329Z,78.70
2017-11-26T08:04:45.966Z,79.40
2017-11-26T08:07:12.569Z,79.40
2017-11-26T08:09:38.793Z,79.40
2017-11-26T08:12:05.065Z,80.30
2017-11-26T08:14:31.645Z,78.70
2017-11-26T08:16:57.938Z,78.70
2017-11-26T08:19:24.538Z,78.50
2017-11-26T08:21:50.758Z,78.50
2017-11-26T08:24:16.963Z,79.00
2017-11-26T08:26:43.201Z,77.90
2017-11-26T08:29:09.408Z,77.10
2017-11-26T08:31:35.940Z,77.20
2017-11-26T08:34:02.150Z,78.70
2017-11-26T08:36:28.387Z,78.60
2017-11-26T08:38:54.619Z,78.80
2017-11-26T08:41:20.865Z,78.60
2017-11-26T08:43:47.119Z,78.50
2017-11-26T08:46:13.407Z,78.70
2017-11-26T08:48:39.665Z,77.30
2017-11-26T08:51:05.912Z,77.10
2017-11-26T08:53:32.201Z,76.80
2017-11-26T08:55:58.455Z,77.20
2017-11-26T08:58:24.737Z,77.70
2017-11-26T09:00:51.017Z,76.70
2017-11-26T09:03:17.265Z,76.90
2017-11-26T09:05:43.506Z,77.70
2017-11-26T09:08:10.156Z,77.40
2017-11-26T09:10:36.845Z,77.70
2017-11-26T09:13:03.114Z,77.70
2017-11-26T09:15:29.791Z,77.80
2017-11-26T09:17:56.048Z,77.80
2017-11-26T09:20:22.310Z,76.00
2017-11-26T09:22:48.922Z,76.70
2017-11-26T09:25:15.139Z,76.80
2017-11-26T09:27:41.425Z,74.70
2017-11-26T09:30:07.657Z,74.00
2017-11-26T09:32:33.884Z,74.70
2017-11-26T09:35:00.122Z,74.90
2017-11-26T09:37:26.384Z,74.70
2017-11-26T09:39:52.623Z,74.60
2017-11-26T09:42:18.874Z,75.10
2017-11-26T09:44:45.155Z,74.70
2017-11-26T09:47:11.388Z,74.90
2017-11-26T09:49:37.709Z,74.00
2017-11-26T09:52:03.971Z,75.40
2017-11-26T09:54:30.209Z,74.80
2017-11-26T09:56:56.452Z,73.70
2017-11-26T09:59:22.719Z,73.10
2017-11-26T10:01:49.000Z,73.40
2017-11-26T10:04:15.625Z,72.60
2017-11-26T10:06:41.852Z,72.60
2017-11-26T10:09:08.099Z,71.40
2017-11-26T10:11:34.743Z,73.40
2017-11-26T10:14:01.391Z,72.50
2017-11-26T10:16:27.637Z,72.50
2017-11-26T10:18:53.943Z,72.30
2017-11-26T10:21:20.194Z,72.00
2017-11-26T10:23:46.431Z,72.20
2017-11-26T10:26:12.662Z,72.20
2017-11-26T10:28:38.940Z,70.70
2017-11-26T10:31:05.593Z,71.50
2017-11-26T10:33:31.903Z,71.50
2017-11-26T10:35:58.137Z,70.30
2017-11-26T10:38:24.418Z,67.20
2017-11-26T10:40:50.670Z,66.50
2017-11-26T10:43:17.332Z,64.40
2017-11-26T10:45:43.978Z,63.70
2017-11-26T10:48:10.612Z,65.60
2017-11-26T10:50:37.294Z,66.90
2017-11-26T10:53:03.593Z,67.00
2017-11-26T10:55:29.883Z,63.70
2017-11-26T10:57:56.205Z,63.50
2017-11-26T11:00:22.532Z,62.10
2017-11-26T11:02:48.785Z,62.50
2017-11-26T11:05:15.102Z,61.30
2017-11-26T11:07:41.359Z,60.60
2017-11-26T11:10:07.639Z,57.80
2017-11-26T11:12:33.880Z,57.70
2017-11-26T11:15:00.153Z,56.00
2017-11-26T11:17:26.768Z,51.50
2017-11-26T11:19:53.052Z,51.50
2017-11-26T11:22:19.330Z,52.60
2017-11-26T11:24:45.595Z,56.20
2017-11-26T11:27:11.870Z,57.60
2017-11-26T11:29:38.146Z,60.10
2017-11-26T11:32:04.402Z,61.70
2017-11-26T11:34:30.699Z,63.60
2017-11-26T11:36:56.914Z,63.20
2017-11-26T11:39:23.216Z,63.00
2017-11-26T11:41:49.467Z,63.00
2017-11-26T11:44:16.066Z,64.00
2017-11-26T11:46:42.306Z,64.00
2017-11-26T11:49:08.599Z,64.90
2017-11-26T11:51:34.883Z,65.80
2017-11-26T11:54:02.176Z,65.00
2017-11-26T11:56:28.451Z,65.40
2017-11-26T11:58:54.760Z,66.40
2017-11-26T12:01:21.080Z,62.60
2017-11-26T12:03:47.417Z,61.50
2017-11-26T12:06:13.703Z,61.70
2017-11-26T12:08:40.334Z,63.10
2017-11-26T12:11:07.044Z,65.20
2017-11-26T12:13:33.288Z,65.20
2017-11-26T12:15:59.643Z,66.30
2017-11-26T12:18:26.006Z,66.70
2017-11-26T12:20:52.333Z,66.50
2017-11-26T12:23:18.665Z,66.60
2017-11-26T12:25:44.962Z,68.20
2017-11-26T12:28:11.261Z,68.70
2017-11-26T12:30:37.525Z,67.20
2017-11-26T12:33:04.161Z,66.20
2017-11-26T12:35:30.511Z,66.20
2017-11-26T12:37:56.809Z,67.50
2017-11-26T12:40:23.482Z,67.40
2017-11-26T12:42:49.829Z,67.40
2017-11-26T12:45:16.121Z,68.30
2017-11-26T12:47:42.771Z,62.30
2017-11-26T12:50:09.055Z,62.30
2017-11-26T12:52:35.320Z,62.70
2017-11-26T12:55:01.607Z,59.80
2017-11-26T12:57:27.887Z,61.40
2017-11-26T12:59:54.217Z,62.60
2017-11-26T13:02:20.520Z,62.20
2017-11-26T13:04:47.146Z,61.60
2017-11-26T13:07:13.456Z,61.60
2017-11-26T13:09:39.789Z,63.00
2017-11-26T13:12:06.096Z,64.70
2017-11-26T13:14:32.416Z,64.50
2017-11-26T13:16:58.722Z,63.90
2017-11-26T13:19:25.002Z,65.00
2017-11-26T13:21:51.317Z,66.10
2017-11-26T13:24:17.596Z,66.60
2017-11-26T13:26:44.243Z,67.60
2017-11-26T13:29:10.876Z,68.20
2017-11-26T13:31:37.537Z,67.90
2017-11-26T13:34:03.927Z,67.90
2017-11-26T13:36:30.218Z,68.10
2017-11-26T13:38:56.488Z,64.90
2017-11-26T13:41:22.805Z,66.80
2017-11-26T13:43:49.069Z,65.90
2017-11-26T13:46:15.711Z,63.60
2017-11-26T13:48:42.347Z,64.40
2017-11-26T13:51:08.639Z,64.40
2017-11-26T13:53:34.917Z,65.80
2017-11-26T13:56:01.199Z,65.60
2017-11-26T13:58:27.488Z,65.60
2017-11-26T14:00:53.787Z,67.40
2017-11-26T14:03:20.049Z,67.10
2017-11-26T14:05:46.366Z,66.00
2017-11-26T14:08:12.666Z,66.80
2017-11-26T14:10:38.945Z,64.90
2017-11-26T14:13:05.357Z,65.10
2017-11-26T14:15:31.628Z,64.80
2017-11-26T14:17:57.902Z,66.10
2017-11-26T14:20:24.154Z,65.60
2017-11-26T14:22:50.950Z,66.60
2017-11-26T14:25:18.147Z,66.10
2017-11-26T14:27:44.447Z,66.10
2017-11-26T14:30:10.801Z,66.30
2017-11-26T14:32:37.092Z,68.10
2017-11-26T14:35:03.795Z,68.70
2017-11-26T14:37:30.116Z,68.70
2017-11-26T14:39:56.431Z,68.50
2017-11-26T14:42:22.735Z,68.40
2017-11-26T14:44:49.365Z,69.00
2017-11-26T14:47:15.686Z,69.00
2017-11-26T14:49:41.966Z,67.60
2017-11-26T14:52:08.284Z,68.30
2017-11-26T14:54:34.568Z,67.00
2017-11-26T14:57:01.333Z,69.00
2017-11-26T14:59:27.649Z,69.00
2017-11-26T15:01:54.346Z,68.70
2017-11-26T15:04:20.645Z,68.70
2017-11-26T15:06:46.951Z,68.60
2017-11-26T15:09:13.579Z,68.70
2017-11-26T15:11:39.888Z,68.70
2017-11-26T15:14:06.216Z,68.80
2017-11-26T15:16:32.567Z,68.20
2017-11-26T15:18:58.940Z,68.10
2017-11-26T15:21:25.222Z,68.70
2017-11-26T15:23:51.573Z,68.20
2017-11-26T15:26:18.237Z,67.10
2017-11-26T15:28:44.564Z,67.10
2017-11-26T15:31:10.837Z,67.50
2017-11-26T15:33:37.169Z,66.70
2017-11-26T15:36:03.516Z,68.40
2017-11-26T15:38:29.817Z,68.00
2017-11-26T15:40:56.168Z,68.00
2017-11-26T15:43:22.448Z,68.60
2017-11-26T15:45:48.761Z,68.30
2017-11-26T15:48:15.096Z,69.60
2017-11-26T15:50:41.368Z,72.30
2017-11-26T15:53:07.719Z,73.80
2017-11-26T15:55:34.034Z,74.90
2017-11-26T15:58:00.387Z,76.40
2017-11-26T16:00:26.673Z,76.80
2017-11-26T16:02:52.941Z,77.20
2017-11-26T16:05:19.273Z,77.70
2017-11-26T16:07:46.699Z,77.30
2017-11-26T16:10:12.991Z,77.30
2017-11-26T16:12:39.289Z,77.90
2017-11-26T16:15:05.963Z,80.80
2017-11-26T16:17:32.258Z,80.90
2017-11-26T16:19:58.523Z,82.20
2017-11-26T16:22:24.789Z,83.50
2017-11-26T16:24:51.099Z,84.00
2017-11-26T16:27:17.375Z,83.10
2017-11-26T16:29:43.682Z,83.00
2017-11-26T16:32:09.967Z,81.50
2017-11-26T16:34:36.301Z,81.80
2017-11-26T16:37:02.567Z,80.90
2017-11-26T16:39:28.850Z,81.20
2017-11-26T16:41:55.203Z,80.90
2017-11-26T16:44:21.549Z,81.40
2017-11-26T16:46:47.873Z,80.10
2017-11-26T16:49:14.185Z,81.10
2017-11-26T16:51:40.501Z,81.60
2017-11-26T16:54:06.840Z,81.40
2017-11-26T16:56:33.210Z,81.90
2017-11-26T16:58:59.559Z,81.90
2017-11-26T17:01:25.864Z,82.60
2017-11-26T17:03:52.252Z,82.70
2017-11-26T17:06:18.974Z,83.30
2017-11-26T17:08:46.157Z,83.30
2017-11-26T17:11:12.490Z,83.70
2017-11-26T17:13:38.753Z,83.60
2017-11-26T17:16:05.044Z,84.30
2017-11-26T17:18:31.332Z,83.40
2017-11-26T17:20:57.685Z,83.20
2017-11-26T17:23:24.369Z,83.50
2017-11-26T17:25:50.658Z,83.50
2017-11-26T17:28:16.944Z,82.80
2017-11-26T17:30:43.359Z,83.00
2017-11-26T17:33:09.713Z,83.30
2017-11-26T17:35:36.007Z,83.60
2017-11-26T17:38:02.356Z,82.90
2017-11-26T17:40:28.762Z,83.30
2017-11-26T17:42:55.054Z,82.90
2017-11-26T17:45:21.369Z,82.40
2017-11-26T17:47:47.696Z,82.70
2017-11-26T17:50:14.025Z,82.90
2017-11-26T17:52:40.368Z,82.60
2017-11-26T17:55:06.695Z,82.20
2017-11-26T17:57:33.024Z,82.40
2017-11-26T17:59:59.344Z,81.30
2017-11-26T18:02:25.682Z,81.30
2017-11-26T18:04:51.962Z,81.40
2017-11-26T18:07:18.280Z,81.00
2017-11-26T18:09:44.541Z,79.90
2017-11-26T18:12:10.828Z,80.60
2017-11-26T18:14:37.134Z,81.30
2017-11-26T18:17:03.512Z,79.70
2017-11-26T18:19:29.816Z,79.40
2017-11-26T18:21:56.476Z,79.60
2017-11-26T18:24:22.749Z,79.60
2017-11-26T18:26:49.051Z,80.10
2017-11-26T18:29:15.331Z,81.00
2017-11-26T18:31:41.586Z,80.60
2017-11-26T18:34:07.812Z,81.20
2017-11-26T18:36:34.091Z,81.40
2017-11-26T18:39:00.385Z,81.80
2017-11-26T18:41:26.688Z,82.10
2017-11-26T18:43:53.374Z,82.30
2017-11-26T18:46:19.660Z,82.30
2017-11-26T18:48:45.948Z,82.50
2017-11-26T18:51:12.257Z,82.20
2017-11-26T18:53:38.512Z,81.70
2017-11-26T18:56:04.803Z,81.20
2017-11-26T18:58:31.097Z,81.70
2017-11-26T19:00:58.682Z,81.60
2017-11-26T19:03:24.990Z,81.60
2017-11-26T19:05:51.616Z,81.50
2017-11-26T19:08:17.937Z,81.50
2017-11-26T19:10:44.202Z,81.30
2017-11-26T19:13:11.526Z,81.30
2017-11-26T19:15:37.808Z,80.80
2017-11-26T19:18:04.111Z,81.70
2017-11-26T19:20:30.388Z,81.30
2017-11-26T19:22:56.723Z,82.20
2017-11-26T19:25:22.967Z,83.00
2017-11-26T19:27:49.217Z,84.40
2017-11-26T19:30:15.560Z,84.90
2017-11-26T19:32:41.851Z,85.30
2017-11-26T19:35:08.146Z,85.20
2017-11-26T19:37:34.453Z,85.90
2017-11-26T19:40:00.768Z,85.30
2017-11-26T19:42:27.078Z,85.50
2017-11-26T19:44:53.375Z,85.40
2017-11-26T19:47:19.717Z,84.50
2017-11-26T19:49:46.009Z,84.40
2017-11-26T19:52:12.326Z,83.70
2017-11-26T19:54:38.628Z,83.90
2017-11-26T19:57:04.973Z,84.10
2017-11-26T19:59:31.343Z,83.50
2017-11-26T20:01:57.706Z,84.00
2017-11-26T20:04:23.994Z,84.10
2017-11-26T20:06:50.334Z,84.70
2017-11-26T20:09:16.644Z,85.00
2017-11-26T20:11:43.017Z,84.90
2017-11-26T20:14:09.448Z,84.70
2017-11-26T20:16:35.791Z,84.00
2017-11-26T20:19:02.067Z,83.20
2017-11-26T20:21:28.312Z,83.10
2017-11-26T20:23:54.630Z,83.90
2017-11-26T20:26:21.226Z,84.10
2017-11-26T20:28:47.570Z,84.10
2017-11-26T20:31:13.946Z,84.90
2017-11-26T20:33:40.285Z,85.20
2017-11-26T20:36:06.608Z,84.90
2017-11-26T20:38:32.872Z,85.00
2017-11-26T20:40:59.252Z,85.10
2017-11-26T20:43:25.540Z,85.40
2017-11-26T20:45:52.186Z,85.50
2017-11-26T20:48:18.496Z,85.50
2017-11-26T20:50:44.759Z,85.40
2017-11-26T20:53:11.412Z,84.20
2017-11-26T20:55:37.714Z,84.20
2017-11-26T20:58:03.948Z,83.90
2017-11-26T21:00:30.303Z,83.80
2017-11-26T21:02:56.617Z,84.40
2017-11-26T21:05:22.892Z,84.10
2017-11-26T21:07:49.204Z,83.70
2017-11-26T21:10:15.499Z,83.60
2017-11-26T21:12:41.804Z,83.20
2017-11-26T21:15:08.090Z,83.70
2017-11-26T21:17:34.408Z,83.20
2017-11-26T21:20:00.666Z,82.90
2017-11-26T21:22:26.938Z,83.20
2017-11-26T21:24:53.678Z,83.60
2017-11-26T21:27:20.340Z,84.10
2017-11-26T21:29:46.617Z,84.10
2017-11-26T21:32:13.003Z,84.30
2017-11-26T21:34:39.279Z,83.50
2017-11-26T21:37:05.600Z,84.30
2017-11-26T21:39:31.873Z,84.00
2017-11-26T21:41:58.122Z,84.10
2017-11-26T21:44:24.411Z,83.90
2017-11-26T21:46:50.650Z,83.60
2017-11-26T21:49:17.283Z,84.10
2017-11-26T21:51:43.552Z,84.10
2017-11-26T21:54:09.804Z,84.30
2017-11-26T21:56:36.868Z,84.40
2017-11-26T21:59:03.114Z,84.20
2017-11-26T22:01:29.449Z,84.20
2017-11-26T22:03:56.065Z,83.60
2017-11-26T22:06:22.316Z,83.60
2017-11-26T22:08:48.566Z,83.20
2017-11-26T22:11:14.850Z,83.50
2017-11-26T22:13:41.117Z,83.30
2017-11-26T22:16:07.379Z,83.80
2017-11-26T22:18:33.661Z,83.60
2017-11-26T22:21:00.632Z,83.60
2017-11-26T22:23:26.924Z,83.60
2017-11-26T22:25:53.234Z,83.70
2017-11-26T22:28:19.527Z,83.10
2017-11-26T22:30:46.061Z,82.70
2017-11-26T22:33:12.303Z,83.10
2017-11-26T22:35:38.550Z,83.50
2017-11-26T22:38:04.792Z,83.30
2017-11-26T22:40:31.063Z,83.40
2017-11-26T22:42:57.282Z,83.30
2017-11-26T22:45:23.530Z,83.10
2017-11-26T22:47:49.826Z,82.90
2017-11-26T22:50:16.053Z,82.80
2017-11-26T22:52:42.266Z,83.20
2017-11-26T22:55:08.492Z,83.60
2017-11-26T22:57:34.705Z,85.10
2017-11-26T23:00:01.000Z,83.80
2017-11-26T23:02:27.260Z,83.50
2017-11-26T23:04:53.477Z,83.60
2017-11-26T23:07:19.706Z,83.10
2017-11-26T23:09:45.971Z,83.20
2017-11-26T23:12:12.278Z,83.80
2017-11-26T23:14:38.503Z,84.20
2017-11-26T23:17:04.755Z,85.40
2017-11-26T23:19:30.941Z,87.30
2017-11-26T23:21:57.213Z,87.30
2017-11-26T23:24:23.453Z,87.00
2017-11-26T23:26:49.741Z,86.60
2017-11-26T23:29:15.953Z,86.00
2017-11-26T23:31:42.173Z,86.00
2017-11-26T23:34:08.373Z,85.60
2017-11-26T23:36:34.977Z,85.70
2017-11-26T23:39:01.205Z,85.70
2017-11-26T23:41:27.452Z,86.10
2017-11-26T23:43:53.699Z,85.50
2017-11-26T23:46:19.923Z,85.20
2017-11-26T23:48:46.535Z,84.30
2017-11-26T23:51:12.753Z,84.30
2017-11-26T23:53:38.990Z,84.50
2017-11-26T23:56:05.218Z,85.20
2017-11-26T23:58:31.421Z,85.20
